sensor_id;sensor_type;location;lat;lon;timestamp;P1;durP1;ratioP1;P2;durP2;ratioP2
15929;SDS011;8064;51.142;4.780;2022-09-21T00:01:05;6.10;;;3.53;;
15929;SDS011;8064;51.142;4.780;2022-09-21T00:03:38;7.70;;;3.40;;
15929;SDS011;8064;51.142;4.780;2022-09-21T00:06:12;5.03;;;3.53;;
15929;SDS011;8064;51.142;4.780;2022-09-21T00:08:39;8.47;;;4.20;;
15929;SDS011;8064;51.142;4.780;2022-09-21T00:11:05;5.83;;;3.50;;
15929;SDS011;8064;51.142;4.780;2022-09-21T00:13:33;4.43;;;3.27;;
15929;SDS011;8064;51.142;4.780;2022-09-21T00:16:03;5.60;;;2.73;;
15929;SDS011;8064;51.142;4.780;2022-09-21T00:18:31;2.80;;;2.33;;
15929;SDS011;8064;51.142;4.780;2022-09-21T00:20:57;4.60;;;2.87;;
15929;SDS011;8064;51.142;4.780;2022-09-21T00:23:22;4.93;;;2.83;;
15929;SDS011;8064;51.142;4.780;2022-09-21T00:25:48;5.53;;;2.80;;
15929;SDS011;8064;51.142;4.780;2022-09-21T00:28:14;5.07;;;2.70;;
15929;SDS011;8064;51.142;4.780;2022-09-21T00:30:40;4.00;;;2.80;;
15929;SDS011;8064;51.142;4.780;2022-09-21T00:33:06;7.27;;;2.80;;
15929;SDS011;8064;51.142;4.780;2022-09-21T00:35:32;4.83;;;2.63;;
15929;SDS011;8064;51.142;4.780;2022-09-21T00:38:01;3.50;;;2.70;;
15929;SDS011;8064;51.142;4.780;2022-09-21T00:40:27;4.00;;;2.73;;
15929;SDS011;8064;51.142;4.780;2022-09-21T00:42:53;4.53;;;2.70;;
15929;SDS011;8064;51.142;4.780;2022-09-21T00:45:19;2.87;;;2.53;;
15929;SDS011;8064;51.142;4.780;2022-09-21T00:47:48;5.77;;;3.00;;
15929;SDS011;8064;51.142;4.780;2022-09-21T00:50:17;4.40;;;2.37;;
15929;SDS011;8064;51.142;4.780;2022-09-21T00:52:48;5.53;;;2.67;;
15929;SDS011;8064;51.142;4.780;2022-09-21T00:55:37;4.70;;;2.80;;
15929;SDS011;8064;51.142;4.780;2022-09-21T00:58:09;6.33;;;2.90;;
15929;SDS011;8064;51.142;4.780;2022-09-21T01:00:40;6.10;;;3.33;;
15929;SDS011;8064;51.142;4.780;2022-09-21T01:03:07;7.07;;;3.13;;
15929;SDS011;8064;51.142;4.780;2022-09-21T01:05:34;4.03;;;2.57;;
15929;SDS011;8064;51.142;4.780;2022-09-21T01:08:00;6.27;;;3.00;;
15929;SDS011;8064;51.142;4.780;2022-09-21T01:10:29;3.80;;;2.93;;
15929;SDS011;8064;51.142;4.780;2022-09-21T01:13:25;4.33;;;2.57;;
15929;SDS011;8064;51.142;4.780;2022-09-21T01:16:12;6.30;;;2.90;;
15929;SDS011;8064;51.142;4.780;2022-09-21T01:24:41;4.30;;;2.93;;
15929;SDS011;8064;51.142;4.780;2022-09-21T01:29:59;4.43;;;2.63;;
15929;SDS011;8064;51.142;4.780;2022-09-21T01:40:13;3.30;;;2.83;;
15929;SDS011;8064;51.142;4.780;2022-09-21T01:42:53;7.80;;;2.70;;
15929;SDS011;8064;51.142;4.780;2022-09-21T01:45:23;5.63;;;2.77;;
15929;SDS011;8064;51.142;4.780;2022-09-21T01:47:55;3.60;;;3.00;;
15929;SDS011;8064;51.142;4.780;2022-09-21T01:50:23;3.70;;;2.80;;
15929;SDS011;8064;51.142;4.780;2022-09-21T01:52:56;4.17;;;2.90;;
15929;SDS011;8064;51.142;4.780;2022-09-21T01:55:35;3.90;;;3.20;;
15929;SDS011;8064;51.142;4.780;2022-09-21T02:00:43;7.03;;;3.53;;
15929;SDS011;8064;51.142;4.780;2022-09-21T02:05:57;4.90;;;3.03;;
15929;SDS011;8064;51.142;4.780;2022-09-21T02:08:25;5.80;;;3.43;;
15929;SDS011;8064;51.142;4.780;2022-09-21T02:10:51;5.60;;;3.67;;
15929;SDS011;8064;51.142;4.780;2022-09-21T02:13:18;7.43;;;2.90;;
15929;SDS011;8064;51.142;4.780;2022-09-21T02:19:00;5.87;;;2.83;;
15929;SDS011;8064;51.142;4.780;2022-09-21T02:24:42;5.60;;;2.90;;
15929;SDS011;8064;51.142;4.780;2022-09-21T02:27:13;4.43;;;2.80;;
15929;SDS011;8064;51.142;4.780;2022-09-21T02:30:06;3.73;;;2.80;;
15929;SDS011;8064;51.142;4.780;2022-09-21T02:38:04;3.80;;;2.70;;
15929;SDS011;8064;51.142;4.780;2022-09-21T02:40:52;6.33;;;3.47;;
15929;SDS011;8064;51.142;4.780;2022-09-21T02:43:22;6.87;;;3.40;;
15929;SDS011;8064;51.142;4.780;2022-09-21T02:45:59;9.87;;;3.50;;
15929;SDS011;8064;51.142;4.780;2022-09-21T02:48:34;3.63;;;3.27;;
15929;SDS011;8064;51.142;4.780;2022-09-21T02:51:13;6.33;;;3.73;;
15929;SDS011;8064;51.142;4.780;2022-09-21T02:53:43;7.27;;;4.10;;
15929;SDS011;8064;51.142;4.780;2022-09-21T02:56:10;9.70;;;3.70;;
15929;SDS011;8064;51.142;4.780;2022-09-21T02:58:45;7.77;;;4.03;;
15929;SDS011;8064;51.142;4.780;2022-09-21T03:01:14;5.67;;;3.90;;
15929;SDS011;8064;51.142;4.780;2022-09-21T03:03:41;5.50;;;3.23;;
15929;SDS011;8064;51.142;4.780;2022-09-21T03:06:07;4.33;;;3.10;;
15929;SDS011;8064;51.142;4.780;2022-09-21T03:08:33;4.63;;;3.37;;
15929;SDS011;8064;51.142;4.780;2022-09-21T03:10:59;5.80;;;3.40;;
15929;SDS011;8064;51.142;4.780;2022-09-21T03:13:25;4.47;;;3.33;;
15929;SDS011;8064;51.142;4.780;2022-09-21T03:15:57;7.07;;;3.77;;
15929;SDS011;8064;51.142;4.780;2022-09-21T03:18:26;5.30;;;3.93;;
15929;SDS011;8064;51.142;4.780;2022-09-21T03:20:52;5.47;;;3.40;;
15929;SDS011;8064;51.142;4.780;2022-09-21T03:23:17;3.33;;;2.90;;
15929;SDS011;8064;51.142;4.780;2022-09-21T03:25:43;5.83;;;3.07;;
15929;SDS011;8064;51.142;4.780;2022-09-21T03:28:10;4.10;;;2.10;;
15929;SDS011;8064;51.142;4.780;2022-09-21T03:30:37;2.90;;;1.80;;
15929;SDS011;8064;51.142;4.780;2022-09-21T03:33:04;2.40;;;1.83;;
15929;SDS011;8064;51.142;4.780;2022-09-21T03:35:30;2.10;;;1.90;;
15929;SDS011;8064;51.142;4.780;2022-09-21T03:37:58;5.70;;;1.90;;
15929;SDS011;8064;51.142;4.780;2022-09-21T03:40:25;1.90;;;1.70;;
15929;SDS011;8064;51.142;4.780;2022-09-21T03:42:51;2.50;;;1.90;;
15929;SDS011;8064;51.142;4.780;2022-09-21T03:45:18;6.90;;;2.97;;
15929;SDS011;8064;51.142;4.780;2022-09-21T03:47:46;3.20;;;2.60;;
15929;SDS011;8064;51.142;4.780;2022-09-21T03:50:12;3.73;;;2.83;;
15929;SDS011;8064;51.142;4.780;2022-09-21T03:52:39;3.90;;;2.93;;
15929;SDS011;8064;51.142;4.780;2022-09-21T03:55:05;5.13;;;2.77;;
15929;SDS011;8064;51.142;4.780;2022-09-21T03:57:33;3.80;;;2.83;;
15929;SDS011;8064;51.142;4.780;2022-09-21T04:00:00;3.87;;;3.00;;
15929;SDS011;8064;51.142;4.780;2022-09-21T04:02:28;5.30;;;2.53;;
15929;SDS011;8064;51.142;4.780;2022-09-21T04:04:54;4.57;;;3.10;;
15929;SDS011;8064;51.142;4.780;2022-09-21T04:07:20;4.17;;;2.97;;
15929;SDS011;8064;51.142;4.780;2022-09-21T04:09:45;5.87;;;2.70;;
15929;SDS011;8064;51.142;4.780;2022-09-21T04:12:11;5.37;;;2.63;;
15929;SDS011;8064;51.142;4.780;2022-09-21T04:14:37;4.80;;;2.77;;
15929;SDS011;8064;51.142;4.780;2022-09-21T04:17:03;4.27;;;3.03;;
15929;SDS011;8064;51.142;4.780;2022-09-21T04:19:29;4.87;;;2.87;;
15929;SDS011;8064;51.142;4.780;2022-09-21T04:21:55;4.93;;;2.73;;
15929;SDS011;8064;51.142;4.780;2022-09-21T04:24:21;6.03;;;3.37;;
15929;SDS011;8064;51.142;4.780;2022-09-21T04:26:47;6.30;;;3.10;;
15929;SDS011;8064;51.142;4.780;2022-09-21T04:29:14;5.30;;;2.93;;
15929;SDS011;8064;51.142;4.780;2022-09-21T04:31:40;4.70;;;3.10;;
15929;SDS011;8064;51.142;4.780;2022-09-21T04:34:07;7.07;;;3.07;;
15929;SDS011;8064;51.142;4.780;2022-09-21T04:36:36;6.77;;;3.10;;
15929;SDS011;8064;51.142;4.780;2022-09-21T04:39:02;6.13;;;3.10;;
15929;SDS011;8064;51.142;4.780;2022-09-21T04:41:29;6.90;;;3.83;;
15929;SDS011;8064;51.142;4.780;2022-09-21T04:43:55;6.40;;;3.73;;
15929;SDS011;8064;51.142;4.780;2022-09-21T04:46:21;5.63;;;3.43;;
15929;SDS011;8064;51.142;4.780;2022-09-21T04:48:47;4.40;;;3.50;;
15929;SDS011;8064;51.142;4.780;2022-09-21T04:51:14;3.67;;;3.23;;
15929;SDS011;8064;51.142;4.780;2022-09-21T04:53:41;6.60;;;3.77;;
15929;SDS011;8064;51.142;4.780;2022-09-21T04:56:08;5.40;;;4.17;;
15929;SDS011;8064;51.142;4.780;2022-09-21T04:58:37;6.07;;;4.10;;
15929;SDS011;8064;51.142;4.780;2022-09-21T05:01:03;4.70;;;3.73;;
15929;SDS011;8064;51.142;4.780;2022-09-21T05:03:30;6.37;;;3.87;;
15929;SDS011;8064;51.142;4.780;2022-09-21T05:05:56;6.63;;;4.33;;
15929;SDS011;8064;51.142;4.780;2022-09-21T05:08:22;6.57;;;3.63;;
15929;SDS011;8064;51.142;4.780;2022-09-21T05:11:09;6.57;;;3.73;;
15929;SDS011;8064;51.142;4.780;2022-09-21T05:13:46;6.30;;;3.70;;
15929;SDS011;8064;51.142;4.780;2022-09-21T05:16:12;11.00;;;3.10;;
15929;SDS011;8064;51.142;4.780;2022-09-21T05:18:39;5.83;;;3.60;;
15929;SDS011;8064;51.142;4.780;2022-09-21T05:21:04;6.37;;;3.30;;
15929;SDS011;8064;51.142;4.780;2022-09-21T05:23:31;6.07;;;3.93;;
15929;SDS011;8064;51.142;4.780;2022-09-21T05:25:57;5.50;;;3.90;;
15929;SDS011;8064;51.142;4.780;2022-09-21T05:28:24;6.63;;;4.30;;
15929;SDS011;8064;51.142;4.780;2022-09-21T05:30:56;5.37;;;3.80;;
15929;SDS011;8064;51.142;4.780;2022-09-21T05:33:29;6.10;;;3.90;;
15929;SDS011;8064;51.142;4.780;2022-09-21T05:36:00;5.53;;;4.00;;
15929;SDS011;8064;51.142;4.780;2022-09-21T05:38:34;4.83;;;3.83;;
15929;SDS011;8064;51.142;4.780;2022-09-21T05:41:00;10.20;;;3.40;;
15929;SDS011;8064;51.142;4.780;2022-09-21T05:43:26;6.07;;;3.50;;
15929;SDS011;8064;51.142;4.780;2022-09-21T05:46:02;6.57;;;4.00;;
15929;SDS011;8064;51.142;4.780;2022-09-21T05:48:37;6.37;;;3.57;;
15929;SDS011;8064;51.142;4.780;2022-09-21T05:51:16;10.30;;;4.67;;
15929;SDS011;8064;51.142;4.780;2022-09-21T06:05:09;7.33;;;3.60;;
15929;SDS011;8064;51.142;4.780;2022-09-21T06:07:37;8.83;;;3.83;;
15929;SDS011;8064;51.142;4.780;2022-09-21T06:10:03;4.93;;;4.00;;
15929;SDS011;8064;51.142;4.780;2022-09-21T06:12:29;6.50;;;3.63;;
15929;SDS011;8064;51.142;4.780;2022-09-21T06:14:55;4.37;;;3.40;;
15929;SDS011;8064;51.142;4.780;2022-09-21T06:17:21;6.70;;;3.17;;
15929;SDS011;8064;51.142;4.780;2022-09-21T06:19:46;6.50;;;3.50;;
15929;SDS011;8064;51.142;4.780;2022-09-21T06:22:12;7.63;;;3.50;;
15929;SDS011;8064;51.142;4.780;2022-09-21T06:24:38;5.63;;;4.00;;
15929;SDS011;8064;51.142;4.780;2022-09-21T06:27:04;6.93;;;3.97;;
15929;SDS011;8064;51.142;4.780;2022-09-21T06:29:29;7.67;;;3.87;;
15929;SDS011;8064;51.142;4.780;2022-09-21T06:31:55;6.37;;;3.97;;
15929;SDS011;8064;51.142;4.780;2022-09-21T06:34:21;7.53;;;4.37;;
15929;SDS011;8064;51.142;4.780;2022-09-21T06:36:47;10.63;;;4.10;;
15929;SDS011;8064;51.142;4.780;2022-09-21T06:39:12;8.17;;;4.20;;
15929;SDS011;8064;51.142;4.780;2022-09-21T06:41:38;7.43;;;4.60;;
15929;SDS011;8064;51.142;4.780;2022-09-21T06:44:04;11.57;;;4.87;;
15929;SDS011;8064;51.142;4.780;2022-09-21T06:46:30;5.87;;;4.30;;
15929;SDS011;8064;51.142;4.780;2022-09-21T06:48:55;6.23;;;4.17;;
15929;SDS011;8064;51.142;4.780;2022-09-21T06:51:21;9.70;;;4.70;;
15929;SDS011;8064;51.142;4.780;2022-09-21T06:53:48;6.60;;;4.60;;
15929;SDS011;8064;51.142;4.780;2022-09-21T06:56:18;6.77;;;4.60;;
15929;SDS011;8064;51.142;4.780;2022-09-21T06:58:43;6.40;;;4.73;;
15929;SDS011;8064;51.142;4.780;2022-09-21T07:01:11;9.03;;;5.17;;
15929;SDS011;8064;51.142;4.780;2022-09-21T07:03:38;8.97;;;5.43;;
15929;SDS011;8064;51.142;4.780;2022-09-21T07:06:05;10.50;;;5.63;;
15929;SDS011;8064;51.142;4.780;2022-09-21T07:08:32;9.97;;;6.10;;
15929;SDS011;8064;51.142;4.780;2022-09-21T07:10:59;12.43;;;5.63;;
15929;SDS011;8064;51.142;4.780;2022-09-21T07:13:27;7.33;;;5.13;;
15929;SDS011;8064;51.142;4.780;2022-09-21T07:15:53;11.23;;;5.93;;
15929;SDS011;8064;51.142;4.780;2022-09-21T07:18:19;8.43;;;5.67;;
15929;SDS011;8064;51.142;4.780;2022-09-21T07:20:46;9.47;;;6.17;;
15929;SDS011;8064;51.142;4.780;2022-09-21T07:23:16;10.10;;;6.70;;
15929;SDS011;8064;51.142;4.780;2022-09-21T07:25:44;8.50;;;5.70;;
15929;SDS011;8064;51.142;4.780;2022-09-21T07:28:13;10.50;;;6.03;;
15929;SDS011;8064;51.142;4.780;2022-09-21T07:30:39;10.37;;;6.23;;
15929;SDS011;8064;51.142;4.780;2022-09-21T07:33:05;6.97;;;5.17;;
15929;SDS011;8064;51.142;4.780;2022-09-21T07:35:32;12.33;;;6.27;;
15929;SDS011;8064;51.142;4.780;2022-09-21T07:37:58;10.60;;;5.90;;
15929;SDS011;8064;51.142;4.780;2022-09-21T07:40:25;7.00;;;5.30;;
15929;SDS011;8064;51.142;4.780;2022-09-21T07:42:51;12.07;;;6.20;;
15929;SDS011;8064;51.142;4.780;2022-09-21T07:45:21;10.53;;;6.20;;
15929;SDS011;8064;51.142;4.780;2022-09-21T07:47:47;10.80;;;6.47;;
15929;SDS011;8064;51.142;4.780;2022-09-21T07:50:12;8.80;;;6.93;;
15929;SDS011;8064;51.142;4.780;2022-09-21T07:52:38;15.17;;;7.07;;
15929;SDS011;8064;51.142;4.780;2022-09-21T07:55:04;14.37;;;6.77;;
15929;SDS011;8064;51.142;4.780;2022-09-21T07:57:30;13.07;;;6.20;;
15929;SDS011;8064;51.142;4.780;2022-09-21T08:00:14;10.83;;;6.90;;
15929;SDS011;8064;51.142;4.780;2022-09-21T08:02:40;13.40;;;7.43;;
15929;SDS011;8064;51.142;4.780;2022-09-21T08:05:06;11.03;;;6.53;;
15929;SDS011;8064;51.142;4.780;2022-09-21T08:07:32;10.10;;;6.37;;
15929;SDS011;8064;51.142;4.780;2022-09-21T08:09:59;12.57;;;7.47;;
15929;SDS011;8064;51.142;4.780;2022-09-21T08:12:24;15.27;;;7.47;;
15929;SDS011;8064;51.142;4.780;2022-09-21T08:14:50;11.63;;;7.60;;
15929;SDS011;8064;51.142;4.780;2022-09-21T08:17:16;10.23;;;7.10;;
15929;SDS011;8064;51.142;4.780;2022-09-21T08:19:41;11.83;;;7.07;;
15929;SDS011;8064;51.142;4.780;2022-09-21T08:22:07;10.17;;;8.10;;
15929;SDS011;8064;51.142;4.780;2022-09-21T08:24:33;13.83;;;8.43;;
15929;SDS011;8064;51.142;4.780;2022-09-21T08:26:59;13.73;;;7.50;;
15929;SDS011;8064;51.142;4.780;2022-09-21T08:29:25;13.10;;;7.70;;
15929;SDS011;8064;51.142;4.780;2022-09-21T08:31:51;10.23;;;7.33;;
15929;SDS011;8064;51.142;4.780;2022-09-21T08:34:17;11.90;;;7.27;;
15929;SDS011;8064;51.142;4.780;2022-09-21T08:36:44;13.77;;;6.80;;
15929;SDS011;8064;51.142;4.780;2022-09-21T08:39:10;13.37;;;7.43;;
15929;SDS011;8064;51.142;4.780;2022-09-21T08:50:29;9.97;;;6.30;;
15929;SDS011;8064;51.142;4.780;2022-09-21T08:53:02;13.50;;;6.77;;
15929;SDS011;8064;51.142;4.780;2022-09-21T08:55:36;10.87;;;6.40;;
15929;SDS011;8064;51.142;4.780;2022-09-21T08:58:02;11.43;;;6.70;;
15929;SDS011;8064;51.142;4.780;2022-09-21T09:00:28;10.80;;;6.27;;
15929;SDS011;8064;51.142;4.780;2022-09-21T09:05:52;9.23;;;5.87;;
15929;SDS011;8064;51.142;4.780;2022-09-21T09:11:32;10.27;;;5.20;;
15929;SDS011;8064;51.142;4.780;2022-09-21T09:14:21;11.00;;;5.37;;
15929;SDS011;8064;51.142;4.780;2022-09-21T09:22:31;8.07;;;4.77;;
15929;SDS011;8064;51.142;4.780;2022-09-21T09:25:03;7.47;;;4.10;;
15929;SDS011;8064;51.142;4.780;2022-09-21T09:27:35;7.32;;;3.50;;
15929;SDS011;8064;51.142;4.780;2022-09-21T09:30:21;7.53;;;3.70;;
15929;SDS011;8064;51.142;4.780;2022-09-21T09:35:48;11.18;;;3.28;;
15929;SDS011;8064;51.142;4.780;2022-09-21T09:38:38;5.95;;;3.05;;
15929;SDS011;8064;51.142;4.780;2022-09-21T09:43:47;10.40;;;2.40;;
15929;SDS011;8064;51.142;4.780;2022-09-21T09:46:44;5.30;;;2.42;;
15929;SDS011;8064;51.142;4.780;2022-09-21T09:49:33;5.78;;;2.00;;
15929;SDS011;8064;51.142;4.780;2022-09-21T09:52:25;5.00;;;1.92;;
15929;SDS011;8064;51.142;4.780;2022-09-21T09:54:51;18.40;;;2.08;;
15929;SDS011;8064;51.142;4.780;2022-09-21T09:57:22;8.77;;;2.33;;
15929;SDS011;8064;51.142;4.780;2022-09-21T09:59:53;4.68;;;2.42;;
15929;SDS011;8064;51.142;4.780;2022-09-21T10:02:24;5.75;;;2.53;;
15929;SDS011;8064;51.142;4.780;2022-09-21T10:04:55;7.35;;;2.10;;
15929;SDS011;8064;51.142;4.780;2022-09-21T10:07:43;8.02;;;2.00;;
15929;SDS011;8064;51.142;4.780;2022-09-21T10:13:02;4.35;;;1.40;;
15929;SDS011;8064;51.142;4.780;2022-09-21T10:15:43;14.35;;;2.40;;
15929;SDS011;8064;51.142;4.780;2022-09-21T10:18:15;6.15;;;2.10;;
15929;SDS011;8064;51.142;4.780;2022-09-21T10:21:00;8.70;;;2.10;;
15929;SDS011;8064;51.142;4.780;2022-09-21T10:23:30;4.40;;;1.10;;
15929;SDS011;8064;51.142;4.780;2022-09-21T10:26:09;6.43;;;1.83;;
15929;SDS011;8064;51.142;4.780;2022-09-21T10:28:37;4.18;;;1.65;;
15929;SDS011;8064;51.142;4.780;2022-09-21T10:31:24;8.73;;;1.83;;
15929;SDS011;8064;51.142;4.780;2022-09-21T10:36:37;5.22;;;1.35;;
15929;SDS011;8064;51.142;4.780;2022-09-21T10:39:10;3.45;;;1.42;;
15929;SDS011;8064;51.142;4.780;2022-09-21T10:42:03;5.13;;;1.30;;
15929;SDS011;8064;51.142;4.780;2022-09-21T10:49:46;4.25;;;1.90;;
15929;SDS011;8064;51.142;4.780;2022-09-21T10:52:15;4.53;;;1.13;;
15929;SDS011;8064;51.142;4.780;2022-09-21T10:54:43;3.53;;;0.98;;
15929;SDS011;8064;51.142;4.780;2022-09-21T10:57:13;3.55;;;0.85;;
15929;SDS011;8064;51.142;4.780;2022-09-21T10:59:41;4.55;;;1.00;;
15929;SDS011;8064;51.142;4.780;2022-09-21T11:08:10;4.05;;;1.13;;
15929;SDS011;8064;51.142;4.780;2022-09-21T11:21:35;3.42;;;0.90;;
15929;SDS011;8064;51.142;4.780;2022-09-21T11:24:25;6.77;;;0.93;;
15929;SDS011;8064;51.142;4.780;2022-09-21T11:27:24;4.13;;;1.10;;
15929;SDS011;8064;51.142;4.780;2022-09-21T11:43:59;6.83;;;1.10;;
15929;SDS011;8064;51.142;4.780;2022-09-21T12:00:57;3.33;;;0.70;;
15929;SDS011;8064;51.142;4.780;2022-09-21T12:06:38;3.50;;;0.90;;
15929;SDS011;8064;51.142;4.780;2022-09-21T12:15:06;4.43;;;1.13;;
15929;SDS011;8064;51.142;4.780;2022-09-21T12:23:13;3.33;;;0.82;;
15929;SDS011;8064;51.142;4.780;2022-09-21T12:25:51;8.15;;;1.10;;
15929;SDS011;8064;51.142;4.780;2022-09-21T12:29:21;4.77;;;1.30;;
15929;SDS011;8064;51.142;4.780;2022-09-21T12:31:34;7.68;;;1.00;;
15929;SDS011;8064;51.142;4.780;2022-09-21T12:34:26;2.05;;;0.93;;
15929;SDS011;8064;51.142;4.780;2022-09-21T12:39:42;2.73;;;1.03;;
15929;SDS011;8064;51.142;4.780;2022-09-21T12:42:21;4.10;;;0.80;;
15929;SDS011;8064;51.142;4.780;2022-09-21T12:45:16;7.23;;;0.93;;
15929;SDS011;8064;51.142;4.780;2022-09-21T12:50:31;6.30;;;1.23;;
15929;SDS011;8064;51.142;4.780;2022-09-21T12:53:09;3.30;;;1.13;;
15929;SDS011;8064;51.142;4.780;2022-09-21T13:04:58;2.70;;;0.87;;
15929;SDS011;8064;51.142;4.780;2022-09-21T13:13:33;3.23;;;1.00;;
15929;SDS011;8064;51.142;4.780;2022-09-21T13:16:02;6.40;;;1.10;;
15929;SDS011;8064;51.142;4.780;2022-09-21T13:18:31;4.27;;;1.57;;
15929;SDS011;8064;51.142;4.780;2022-09-21T13:21:15;6.70;;;1.40;;
15929;SDS011;8064;51.142;4.780;2022-09-21T13:23:43;4.17;;;0.90;;
15929;SDS011;8064;51.142;4.780;2022-09-21T13:26:18;5.13;;;0.90;;
15929;SDS011;8064;51.142;4.780;2022-09-21T13:31:39;3.37;;;1.10;;
15929;SDS011;8064;51.142;4.780;2022-09-21T13:34:20;5.70;;;1.10;;
15929;SDS011;8064;51.142;4.780;2022-09-21T13:47:44;3.53;;;0.80;;
15929;SDS011;8064;51.142;4.780;2022-09-21T13:50:23;4.47;;;1.27;;
15929;SDS011;8064;51.142;4.780;2022-09-21T13:53:02;3.80;;;1.00;;
15929;SDS011;8064;51.142;4.780;2022-09-21T13:55:34;9.40;;;0.90;;
15929;SDS011;8064;51.142;4.780;2022-09-21T13:58:06;7.53;;;1.60;;
15929;SDS011;8064;51.142;4.780;2022-09-21T14:00:57;2.77;;;0.97;;
15929;SDS011;8064;51.142;4.780;2022-09-21T14:06:01;2.13;;;0.80;;
15929;SDS011;8064;51.142;4.780;2022-09-21T14:08:29;3.30;;;1.13;;
15929;SDS011;8064;51.142;4.780;2022-09-21T14:11:02;2.27;;;1.20;;
15929;SDS011;8064;51.142;4.780;2022-09-21T14:13:38;3.73;;;0.97;;
15929;SDS011;8064;51.142;4.780;2022-09-21T14:18:51;3.60;;;1.40;;
15929;SDS011;8064;51.142;4.780;2022-09-21T14:21:17;3.73;;;0.90;;
15929;SDS011;8064;51.142;4.780;2022-09-21T14:26:46;4.60;;;1.20;;
15929;SDS011;8064;51.142;4.780;2022-09-21T14:31:45;4.03;;;1.30;;
15929;SDS011;8064;51.142;4.780;2022-09-21T14:34:17;5.67;;;1.33;;
15929;SDS011;8064;51.142;4.780;2022-09-21T14:36:47;5.23;;;1.10;;
15929;SDS011;8064;51.142;4.780;2022-09-21T14:41:48;2.80;;;1.20;;
15929;SDS011;8064;51.142;4.780;2022-09-21T14:44:22;3.27;;;1.37;;
15929;SDS011;8064;51.142;4.780;2022-09-21T14:47:00;3.70;;;1.37;;
15929;SDS011;8064;51.142;4.780;2022-09-21T14:55:15;5.03;;;1.20;;
15929;SDS011;8064;51.142;4.780;2022-09-21T15:00:48;3.33;;;1.00;;
15929;SDS011;8064;51.142;4.780;2022-09-21T15:03:20;6.03;;;1.40;;
15929;SDS011;8064;51.142;4.780;2022-09-21T15:06:14;3.30;;;1.10;;
15929;SDS011;8064;51.142;4.780;2022-09-21T15:12:19;4.37;;;1.30;;
15929;SDS011;8064;51.142;4.780;2022-09-21T15:17:59;2.40;;;1.20;;
15929;SDS011;8064;51.142;4.780;2022-09-21T15:20:26;3.73;;;1.30;;
15929;SDS011;8064;51.142;4.780;2022-09-21T15:22:54;2.83;;;1.10;;
15929;SDS011;8064;51.142;4.780;2022-09-21T15:25:21;2.67;;;0.87;;
15929;SDS011;8064;51.142;4.780;2022-09-21T15:27:48;2.80;;;0.90;;
15929;SDS011;8064;51.142;4.780;2022-09-21T15:30:23;4.53;;;0.67;;
15929;SDS011;8064;51.142;4.780;2022-09-21T15:33:00;3.83;;;0.90;;
15929;SDS011;8064;51.142;4.780;2022-09-21T15:35:28;3.30;;;1.07;;
15929;SDS011;8064;51.142;4.780;2022-09-21T15:37:56;2.53;;;1.03;;
15929;SDS011;8064;51.142;4.780;2022-09-21T15:42:59;5.17;;;0.90;;
15929;SDS011;8064;51.142;4.780;2022-09-21T15:45:52;2.57;;;1.00;;
15929;SDS011;8064;51.142;4.780;2022-09-21T15:48:27;5.07;;;1.30;;
15929;SDS011;8064;51.142;4.780;2022-09-21T15:51:02;4.63;;;1.00;;
15929;SDS011;8064;51.142;4.780;2022-09-21T15:53:45;4.20;;;1.00;;
15929;SDS011;8064;51.142;4.780;2022-09-21T15:56:29;2.80;;;1.23;;
15929;SDS011;8064;51.142;4.780;2022-09-21T15:58:58;3.43;;;0.97;;
15929;SDS011;8064;51.142;4.780;2022-09-21T16:01:36;2.37;;;1.03;;
15929;SDS011;8064;51.142;4.780;2022-09-21T16:04:07;6.97;;;1.20;;
15929;SDS011;8064;51.142;4.780;2022-09-21T16:06:37;4.23;;;1.30;;
15929;SDS011;8064;51.142;4.780;2022-09-21T16:11:50;6.13;;;1.40;;
15929;SDS011;8064;51.142;4.780;2022-09-21T16:14:18;3.33;;;1.10;;
15929;SDS011;8064;51.142;4.780;2022-09-21T16:19:44;4.10;;;1.20;;
15929;SDS011;8064;51.142;4.780;2022-09-21T16:22:39;2.13;;;0.90;;
15929;SDS011;8064;51.142;4.780;2022-09-21T16:25:21;2.97;;;0.97;;
15929;SDS011;8064;51.142;4.780;2022-09-21T16:27:55;6.13;;;1.10;;
15929;SDS011;8064;51.142;4.780;2022-09-21T16:30:38;2.10;;;1.13;;
15929;SDS011;8064;51.142;4.780;2022-09-21T16:38:46;2.43;;;1.00;;
15929;SDS011;8064;51.142;4.780;2022-09-21T16:41:13;3.80;;;0.90;;
15929;SDS011;8064;51.142;4.780;2022-09-21T16:43:40;2.50;;;1.03;;
15929;SDS011;8064;51.142;4.780;2022-09-21T16:46:10;4.17;;;1.20;;
15929;SDS011;8064;51.142;4.780;2022-09-21T16:48:36;4.40;;;1.60;;
15929;SDS011;8064;51.142;4.780;2022-09-21T16:51:02;5.40;;;1.00;;
15929;SDS011;8064;51.142;4.780;2022-09-21T16:53:29;4.00;;;1.37;;
15929;SDS011;8064;51.142;4.780;2022-09-21T16:55:55;5.43;;;1.77;;
15929;SDS011;8064;51.142;4.780;2022-09-21T16:58:21;4.43;;;1.43;;
15929;SDS011;8064;51.142;4.780;2022-09-21T17:00:51;8.37;;;1.57;;
15929;SDS011;8064;51.142;4.780;2022-09-21T17:03:18;4.47;;;1.03;;
15929;SDS011;8064;51.142;4.780;2022-09-21T17:05:44;2.70;;;1.20;;
15929;SDS011;8064;51.142;4.780;2022-09-21T17:08:10;4.13;;;1.50;;
15929;SDS011;8064;51.142;4.780;2022-09-21T17:10:40;4.03;;;1.60;;
15929;SDS011;8064;51.142;4.780;2022-09-21T17:13:09;2.60;;;0.80;;
15929;SDS011;8064;51.142;4.780;2022-09-21T17:15:37;5.43;;;1.40;;
15929;SDS011;8064;51.142;4.780;2022-09-21T17:18:08;3.17;;;0.90;;
15929;SDS011;8064;51.142;4.780;2022-09-21T17:20:40;2.33;;;1.27;;
15929;SDS011;8064;51.142;4.780;2022-09-21T17:23:08;6.13;;;1.00;;
15929;SDS011;8064;51.142;4.780;2022-09-21T17:25:35;4.60;;;0.93;;
15929;SDS011;8064;51.142;4.780;2022-09-21T17:28:01;2.80;;;1.00;;
15929;SDS011;8064;51.142;4.780;2022-09-21T17:30:34;3.43;;;1.07;;
15929;SDS011;8064;51.142;4.780;2022-09-21T17:33:02;3.33;;;1.00;;
15929;SDS011;8064;51.142;4.780;2022-09-21T17:35:32;3.23;;;1.20;;
15929;SDS011;8064;51.142;4.780;2022-09-21T17:38:03;5.03;;;0.90;;
15929;SDS011;8064;51.142;4.780;2022-09-21T17:40:29;3.67;;;0.90;;
15929;SDS011;8064;51.142;4.780;2022-09-21T17:43:12;2.63;;;1.10;;
15929;SDS011;8064;51.142;4.780;2022-09-21T17:46:02;2.90;;;0.93;;
15929;SDS011;8064;51.142;4.780;2022-09-21T17:48:34;2.53;;;1.00;;
15929;SDS011;8064;51.142;4.780;2022-09-21T17:51:02;3.63;;;1.20;;
15929;SDS011;8064;51.142;4.780;2022-09-21T17:53:28;3.70;;;1.50;;
15929;SDS011;8064;51.142;4.780;2022-09-21T17:59:22;3.07;;;1.20;;
15929;SDS011;8064;51.142;4.780;2022-09-21T18:01:56;1.57;;;0.90;;
15929;SDS011;8064;51.142;4.780;2022-09-21T18:04:24;3.93;;;1.20;;
15929;SDS011;8064;51.142;4.780;2022-09-21T18:06:57;3.47;;;1.20;;
15929;SDS011;8064;51.142;4.780;2022-09-21T18:09:23;4.50;;;1.47;;
15929;SDS011;8064;51.142;4.780;2022-09-21T18:20:45;3.40;;;1.47;;
15929;SDS011;8064;51.142;4.780;2022-09-21T18:23:27;3.27;;;1.20;;
15929;SDS011;8064;51.142;4.780;2022-09-21T18:26:04;2.63;;;1.37;;
15929;SDS011;8064;51.142;4.780;2022-09-21T18:31:18;3.13;;;1.40;;
15929;SDS011;8064;51.142;4.780;2022-09-21T18:39:24;4.77;;;1.50;;
15929;SDS011;8064;51.142;4.780;2022-09-21T18:42:21;4.83;;;1.60;;
15929;SDS011;8064;51.142;4.780;2022-09-21T18:53:35;3.17;;;1.50;;
15929;SDS011;8064;51.142;4.780;2022-09-21T18:56:11;2.73;;;1.63;;
15929;SDS011;8064;51.142;4.780;2022-09-21T18:58:38;3.87;;;1.70;;
15929;SDS011;8064;51.142;4.780;2022-09-21T19:01:09;3.57;;;1.67;;
15929;SDS011;8064;51.142;4.780;2022-09-21T19:03:37;5.70;;;2.53;;
15929;SDS011;8064;51.142;4.780;2022-09-21T19:17:02;4.13;;;2.40;;
15929;SDS011;8064;51.142;4.780;2022-09-21T19:27:59;3.13;;;1.80;;
15929;SDS011;8064;51.142;4.780;2022-09-21T19:30:34;3.07;;;2.00;;
15929;SDS011;8064;51.142;4.780;2022-09-21T19:33:05;3.17;;;2.17;;
15929;SDS011;8064;51.142;4.780;2022-09-21T19:35:45;6.43;;;1.90;;
15929;SDS011;8064;51.142;4.780;2022-09-21T19:38:11;3.60;;;1.90;;
15929;SDS011;8064;51.142;4.780;2022-09-21T19:40:37;4.90;;;2.23;;
15929;SDS011;8064;51.142;4.780;2022-09-21T19:43:18;2.70;;;1.67;;
15929;SDS011;8064;51.142;4.780;2022-09-21T19:49:08;5.10;;;2.53;;
15929;SDS011;8064;51.142;4.780;2022-09-21T19:51:50;6.27;;;2.20;;
15929;SDS011;8064;51.142;4.780;2022-09-21T19:54:18;4.97;;;1.93;;